sensor_id;sensor_type;location;lat;lon;timestamp;temperature;humidity
7232;DHT22;3657;49.630;11.018;2022-08-05T00:01:21;29.90;47.80
7232;DHT22;3657;49.630;11.018;2022-08-05T00:03:49;29.90;47.80
7232;DHT22;3657;49.630;11.018;2022-08-05T00:06:16;30.00;47.80
7232;DHT22;3657;49.630;11.018;2022-08-05T00:08:43;30.00;47.80
7232;DHT22;3657;49.630;11.018;2022-08-05T00:11:12;30.00;47.80
7232;DHT22;3657;49.630;11.018;2022-08-05T00:13:41;30.10;47.90
7232;DHT22;3657;49.630;11.018;2022-08-05T00:16:11;30.10;47.90
7232;DHT22;3657;49.630;11.018;2022-08-05T00:18:41;30.00;47.90
7232;DHT22;3657;49.630;11.018;2022-08-05T00:21:08;30.00;47.90
7232;DHT22;3657;49.630;11.018;2022-08-05T00:23:35;30.00;48.00
7232;DHT22;3657;49.630;11.018;2022-08-05T00:26:02;30.00;48.00
7232;DHT22;3657;49.630;11.018;2022-08-05T00:28:28;30.00;48.10
7232;DHT22;3657;49.630;11.018;2022-08-05T00:30:55;29.90;48.00
7232;DHT22;3657;49.630;11.018;2022-08-05T00:33:23;29.90;48.10
7232;DHT22;3657;49.630;11.018;2022-08-05T00:35:50;29.90;48.20
7232;DHT22;3657;49.630;11.018;2022-08-05T00:38:16;29.80;48.20
7232;DHT22;3657;49.630;11.018;2022-08-05T00:40:48;29.80;48.20
7232;DHT22;3657;49.630;11.018;2022-08-05T00:43:15;29.70;48.20
7232;DHT22;3657;49.630;11.018;2022-08-05T00:45:42;29.70;48.30
7232;DHT22;3657;49.630;11.018;2022-08-05T00:48:10;29.70;48.30
7232;DHT22;3657;49.630;11.018;2022-08-05T00:50:39;29.60;49.70
7232;DHT22;3657;49.630;11.018;2022-08-05T00:53:06;29.50;48.70
7232;DHT22;3657;49.630;11.018;2022-08-05T00:55:33;29.50;49.30
7232;DHT22;3657;49.630;11.018;2022-08-05T00:58:00;29.40;48.80
7232;DHT22;3657;49.630;11.018;2022-08-05T01:00:28;29.30;49.40
7232;DHT22;3657;49.630;11.018;2022-08-05T01:02:56;29.10;49.50
7232;DHT22;3657;49.630;11.018;2022-08-05T01:05:23;29.00;49.10
7232;DHT22;3657;49.630;11.018;2022-08-05T01:07:51;29.10;49.10
7232;DHT22;3657;49.630;11.018;2022-08-05T01:10:23;29.10;49.00
7232;DHT22;3657;49.630;11.018;2022-08-05T01:12:55;29.10;49.10
7232;DHT22;3657;49.630;11.018;2022-08-05T01:15:29;29.10;49.00
7232;DHT22;3657;49.630;11.018;2022-08-05T01:18:01;29.10;48.90
7232;DHT22;3657;49.630;11.018;2022-08-05T01:20:36;29.00;48.90
7232;DHT22;3657;49.630;11.018;2022-08-05T01:23:14;29.00;49.30
7232;DHT22;3657;49.630;11.018;2022-08-05T01:26:13;29.00;49.00
7232;DHT22;3657;49.630;11.018;2022-08-05T01:28:48;29.00;49.00
7232;DHT22;3657;49.630;11.018;2022-08-05T01:31:22;29.00;49.00
7232;DHT22;3657;49.630;11.018;2022-08-05T01:33:54;29.00;49.00
7232;DHT22;3657;49.630;11.018;2022-08-05T01:36:25;28.90;49.00
7232;DHT22;3657;49.630;11.018;2022-08-05T01:38:54;28.90;49.00
7232;DHT22;3657;49.630;11.018;2022-08-05T01:41:22;28.90;49.20
7232;DHT22;3657;49.630;11.018;2022-08-05T01:43:51;28.80;49.70
7232;DHT22;3657;49.630;11.018;2022-08-05T01:46:20;28.80;50.00
7232;DHT22;3657;49.630;11.018;2022-08-05T01:48:48;28.70;49.50
7232;DHT22;3657;49.630;11.018;2022-08-05T01:51:17;28.60;49.50
7232;DHT22;3657;49.630;11.018;2022-08-05T01:53:45;28.60;49.50
7232;DHT22;3657;49.630;11.018;2022-08-05T01:56:14;28.60;49.60
7232;DHT22;3657;49.630;11.018;2022-08-05T01:58:41;28.60;49.70
7232;DHT22;3657;49.630;11.018;2022-08-05T02:01:12;28.60;50.20
7232;DHT22;3657;49.630;11.018;2022-08-05T02:03:44;28.50;49.90
7232;DHT22;3657;49.630;11.018;2022-08-05T02:06:12;28.40;49.90
7232;DHT22;3657;49.630;11.018;2022-08-05T02:08:39;28.40;49.90
7232;DHT22;3657;49.630;11.018;2022-08-05T02:11:08;28.40;49.90
7232;DHT22;3657;49.630;11.018;2022-08-05T02:13:38;28.40;50.80
7232;DHT22;3657;49.630;11.018;2022-08-05T02:16:14;28.30;50.10
7232;DHT22;3657;49.630;11.018;2022-08-05T02:18:46;28.20;50.50
7232;DHT22;3657;49.630;11.018;2022-08-05T02:21:16;28.20;50.20
7232;DHT22;3657;49.630;11.018;2022-08-05T02:23:47;28.20;50.30
7232;DHT22;3657;49.630;11.018;2022-08-05T02:26:18;28.20;50.30
7232;DHT22;3657;49.630;11.018;2022-08-05T02:28:46;28.20;50.40
7232;DHT22;3657;49.630;11.018;2022-08-05T02:31:21;28.20;50.40
7232;DHT22;3657;49.630;11.018;2022-08-05T02:33:51;28.20;50.50
7232;DHT22;3657;49.630;11.018;2022-08-05T02:36:21;28.10;50.90
7232;DHT22;3657;49.630;11.018;2022-08-05T02:38:49;28.10;50.50
7232;DHT22;3657;49.630;11.018;2022-08-05T02:41:16;28.10;50.50
7232;DHT22;3657;49.630;11.018;2022-08-05T02:43:46;28.10;50.60
7232;DHT22;3657;49.630;11.018;2022-08-05T02:46:15;28.00;50.50
7232;DHT22;3657;49.630;11.018;2022-08-05T02:48:43;28.00;50.60
7232;DHT22;3657;49.630;11.018;2022-08-05T02:51:12;28.00;50.70
7232;DHT22;3657;49.630;11.018;2022-08-05T02:53:40;28.00;50.70
7232;DHT22;3657;49.630;11.018;2022-08-05T02:56:08;27.90;50.70
7232;DHT22;3657;49.630;11.018;2022-08-05T02:58:36;27.90;50.70
7232;DHT22;3657;49.630;11.018;2022-08-05T03:01:04;27.90;50.70
7232;DHT22;3657;49.630;11.018;2022-08-05T03:03:33;27.90;50.80
7232;DHT22;3657;49.630;11.018;2022-08-05T03:06:01;27.80;50.80
7232;DHT22;3657;49.630;11.018;2022-08-05T03:08:28;27.80;50.80
7232;DHT22;3657;49.630;11.018;2022-08-05T03:10:55;27.80;50.80
7232;DHT22;3657;49.630;11.018;2022-08-05T03:13:22;27.80;50.90
7232;DHT22;3657;49.630;11.018;2022-08-05T03:15:48;27.70;50.90
7232;DHT22;3657;49.630;11.018;2022-08-05T03:18:15;27.60;52.40
7232;DHT22;3657;49.630;11.018;2022-08-05T03:20:43;27.40;51.70
7232;DHT22;3657;49.630;11.018;2022-08-05T03:23:10;27.10;52.30
7232;DHT22;3657;49.630;11.018;2022-08-05T03:25:38;27.10;52.10
7232;DHT22;3657;49.630;11.018;2022-08-05T03:28:07;27.10;52.00
7232;DHT22;3657;49.630;11.018;2022-08-05T03:30:34;27.20;51.80
7232;DHT22;3657;49.630;11.018;2022-08-05T03:33:04;27.10;53.30
7232;DHT22;3657;49.630;11.018;2022-08-05T03:35:30;27.10;51.80
7232;DHT22;3657;49.630;11.018;2022-08-05T03:38:01;27.20;51.60
7232;DHT22;3657;49.630;11.018;2022-08-05T03:40:28;27.20;52.40
7232;DHT22;3657;49.630;11.018;2022-08-05T03:42:54;27.20;51.40
7232;DHT22;3657;49.630;11.018;2022-08-05T03:45:21;27.20;51.40
7232;DHT22;3657;49.630;11.018;2022-08-05T03:47:48;27.20;51.70
7232;DHT22;3657;49.630;11.018;2022-08-05T03:50:15;27.20;51.40
7232;DHT22;3657;49.630;11.018;2022-08-05T03:52:49;27.20;51.40
7232;DHT22;3657;49.630;11.018;2022-08-05T03:55:25;27.20;51.30
7232;DHT22;3657;49.630;11.018;2022-08-05T03:57:53;27.20;51.30
7232;DHT22;3657;49.630;11.018;2022-08-05T04:00:21;27.30;51.30
7232;DHT22;3657;49.630;11.018;2022-08-05T04:02:52;27.20;51.30
7232;DHT22;3657;49.630;11.018;2022-08-05T04:05:21;27.20;51.40
7232;DHT22;3657;49.630;11.018;2022-08-05T04:07:49;27.20;51.30
7232;DHT22;3657;49.630;11.018;2022-08-05T04:10:16;27.20;51.40
7232;DHT22;3657;49.630;11.018;2022-08-05T04:12:44;27.20;51.40
7232;DHT22;3657;49.630;11.018;2022-08-05T04:15:11;27.20;51.50
7232;DHT22;3657;49.630;11.018;2022-08-05T04:17:38;27.10;51.40
7232;DHT22;3657;49.630;11.018;2022-08-05T04:20:05;27.10;51.50
7232;DHT22;3657;49.630;11.018;2022-08-05T04:22:32;27.10;51.50
7232;DHT22;3657;49.630;11.018;2022-08-05T04:24:59;27.10;51.50
7232;DHT22;3657;49.630;11.018;2022-08-05T04:27:25;27.10;51.60
7232;DHT22;3657;49.630;11.018;2022-08-05T04:29:53;27.10;51.70
7232;DHT22;3657;49.630;11.018;2022-08-05T04:32:20;27.10;51.70
7232;DHT22;3657;49.630;11.018;2022-08-05T04:34:47;27.10;51.80
7232;DHT22;3657;49.630;11.018;2022-08-05T04:37:13;27.10;51.90
7232;DHT22;3657;49.630;11.018;2022-08-05T04:39:40;27.00;51.90
7232;DHT22;3657;49.630;11.018;2022-08-05T04:42:07;27.00;51.90
7232;DHT22;3657;49.630;11.018;2022-08-05T04:44:34;27.00;52.00
7232;DHT22;3657;49.630;11.018;2022-08-05T04:47:03;27.00;52.00
7232;DHT22;3657;49.630;11.018;2022-08-05T04:49:29;27.00;52.00
7232;DHT22;3657;49.630;11.018;2022-08-05T04:51:56;27.00;52.00
7232;DHT22;3657;49.630;11.018;2022-08-05T04:54:23;27.00;52.00
7232;DHT22;3657;49.630;11.018;2022-08-05T04:56:51;27.00;52.00
7232;DHT22;3657;49.630;11.018;2022-08-05T04:59:18;27.00;52.10
7232;DHT22;3657;49.630;11.018;2022-08-05T05:01:46;27.00;52.10
7232;DHT22;3657;49.630;11.018;2022-08-05T05:04:15;27.00;52.10
7232;DHT22;3657;49.630;11.018;2022-08-05T05:06:42;27.00;52.20
7232;DHT22;3657;49.630;11.018;2022-08-05T05:09:09;27.00;52.20
7232;DHT22;3657;49.630;11.018;2022-08-05T05:11:36;26.90;52.20
7232;DHT22;3657;49.630;11.018;2022-08-05T05:14:03;27.00;52.20
7232;DHT22;3657;49.630;11.018;2022-08-05T05:16:30;27.00;52.10
7232;DHT22;3657;49.630;11.018;2022-08-05T05:18:57;27.00;52.10
7232;DHT22;3657;49.630;11.018;2022-08-05T05:21:25;27.00;52.10
7232;DHT22;3657;49.630;11.018;2022-08-05T05:23:52;27.10;52.10
7232;DHT22;3657;49.630;11.018;2022-08-05T05:26:19;27.10;52.00
7232;DHT22;3657;49.630;11.018;2022-08-05T05:28:46;27.10;52.10
7232;DHT22;3657;49.630;11.018;2022-08-05T05:31:13;27.10;52.10
7232;DHT22;3657;49.630;11.018;2022-08-05T05:33:39;27.10;52.70
7232;DHT22;3657;49.630;11.018;2022-08-05T05:36:07;27.00;53.40
7232;DHT22;3657;49.630;11.018;2022-08-05T05:38:35;27.00;52.90
7232;DHT22;3657;49.630;11.018;2022-08-05T05:41:01;26.90;52.80
7232;DHT22;3657;49.630;11.018;2022-08-05T05:43:28;27.10;52.60
7232;DHT22;3657;49.630;11.018;2022-08-05T05:45:55;27.20;53.30
7232;DHT22;3657;49.630;11.018;2022-08-05T05:48:22;27.20;52.20
7232;DHT22;3657;49.630;11.018;2022-08-05T05:50:50;27.30;53.00
7232;DHT22;3657;49.630;11.018;2022-08-05T05:53:17;27.30;54.40
7232;DHT22;3657;49.630;11.018;2022-08-05T05:55:46;27.40;52.20
7232;DHT22;3657;49.630;11.018;2022-08-05T05:58:13;27.60;53.70
7232;DHT22;3657;49.630;11.018;2022-08-05T06:00:40;27.90;52.10
7232;DHT22;3657;49.630;11.018;2022-08-05T06:03:06;28.00;52.30
7232;DHT22;3657;49.630;11.018;2022-08-05T06:05:34;28.00;51.30
7232;DHT22;3657;49.630;11.018;2022-08-05T06:08:01;28.00;52.40
7232;DHT22;3657;49.630;11.018;2022-08-05T06:10:27;27.80;53.00
7232;DHT22;3657;49.630;11.018;2022-08-05T06:12:55;27.70;53.70
7232;DHT22;3657;49.630;11.018;2022-08-05T06:15:22;27.40;55.30
7232;DHT22;3657;49.630;11.018;2022-08-05T06:17:49;27.10;55.40
7232;DHT22;3657;49.630;11.018;2022-08-05T06:20:16;26.90;55.90
7232;DHT22;3657;49.630;11.018;2022-08-05T06:22:43;26.80;54.60
7232;DHT22;3657;49.630;11.018;2022-08-05T06:25:09;26.80;55.70
7232;DHT22;3657;49.630;11.018;2022-08-05T06:27:37;26.80;54.80
7232;DHT22;3657;49.630;11.018;2022-08-05T06:30:07;26.80;56.80
7232;DHT22;3657;49.630;11.018;2022-08-05T06:32:35;26.80;55.40
7232;DHT22;3657;49.630;11.018;2022-08-05T06:35:01;26.90;56.10
7232;DHT22;3657;49.630;11.018;2022-08-05T06:37:28;27.00;56.00
7232;DHT22;3657;49.630;11.018;2022-08-05T06:39:55;27.00;56.40
7232;DHT22;3657;49.630;11.018;2022-08-05T06:42:22;27.00;56.60
7232;DHT22;3657;49.630;11.018;2022-08-05T06:44:48;27.10;56.10
7232;DHT22;3657;49.630;11.018;2022-08-05T06:47:17;27.10;55.00
7232;DHT22;3657;49.630;11.018;2022-08-05T06:49:43;27.30;56.30
7232;DHT22;3657;49.630;11.018;2022-08-05T06:52:10;27.40;54.40
7232;DHT22;3657;49.630;11.018;2022-08-05T06:54:37;27.60;54.60
7232;DHT22;3657;49.630;11.018;2022-08-05T06:57:04;27.80;54.90
7232;DHT22;3657;49.630;11.018;2022-08-05T06:59:31;28.00;55.40
7232;DHT22;3657;49.630;11.018;2022-08-05T07:01:57;28.30;55.40
7232;DHT22;3657;49.630;11.018;2022-08-05T07:04:25;28.70;53.80
7232;DHT22;3657;49.630;11.018;2022-08-05T07:06:52;29.10;52.90
7232;DHT22;3657;49.630;11.018;2022-08-05T07:09:19;29.30;54.00
7232;DHT22;3657;49.630;11.018;2022-08-05T07:11:45;29.50;53.40
7232;DHT22;3657;49.630;11.018;2022-08-05T07:14:12;29.70;54.40
7232;DHT22;3657;49.630;11.018;2022-08-05T07:16:57;29.70;55.10
7232;DHT22;3657;49.630;11.018;2022-08-05T07:19:28;29.80;53.80
7232;DHT22;3657;49.630;11.018;2022-08-05T07:21:55;29.90;54.60
7232;DHT22;3657;49.630;11.018;2022-08-05T07:24:22;30.00;54.90
7232;DHT22;3657;49.630;11.018;2022-08-05T07:26:49;30.10;53.90
7232;DHT22;3657;49.630;11.018;2022-08-05T07:29:16;30.30;54.80
7232;DHT22;3657;49.630;11.018;2022-08-05T07:31:43;30.50;54.40
7232;DHT22;3657;49.630;11.018;2022-08-05T07:34:10;30.70;54.00
7232;DHT22;3657;49.630;11.018;2022-08-05T07:36:38;30.90;53.50
7232;DHT22;3657;49.630;11.018;2022-08-05T07:39:07;30.80;53.30
7232;DHT22;3657;49.630;11.018;2022-08-05T07:41:35;31.00;53.50
7232;DHT22;3657;49.630;11.018;2022-08-05T07:44:03;31.10;53.10
7232;DHT22;3657;49.630;11.018;2022-08-05T07:46:31;31.40;53.30
7232;DHT22;3657;49.630;11.018;2022-08-05T07:48:59;31.60;52.70
7232;DHT22;3657;49.630;11.018;2022-08-05T07:51:26;31.70;52.50
7232;DHT22;3657;49.630;11.018;2022-08-05T07:53:54;31.60;52.80
7232;DHT22;3657;49.630;11.018;2022-08-05T07:56:20;31.40;53.20
7232;DHT22;3657;49.630;11.018;2022-08-05T07:58:47;31.10;53.60
7232;DHT22;3657;49.630;11.018;2022-08-05T08:01:14;31.00;53.60
7232;DHT22;3657;49.630;11.018;2022-08-05T08:03:40;31.00;53.80
7232;DHT22;3657;49.630;11.018;2022-08-05T08:06:07;31.10;53.60
7232;DHT22;3657;49.630;11.018;2022-08-05T08:08:34;31.40;53.40
7232;DHT22;3657;49.630;11.018;2022-08-05T08:11:02;31.80;53.00
7232;DHT22;3657;49.630;11.018;2022-08-05T08:13:28;32.10;52.80
7232;DHT22;3657;49.630;11.018;2022-08-05T08:15:56;32.30;52.50
7232;DHT22;3657;49.630;11.018;2022-08-05T08:18:22;32.60;52.40
7232;DHT22;3657;49.630;11.018;2022-08-05T08:20:49;32.90;52.00
7232;DHT22;3657;49.630;11.018;2022-08-05T08:23:16;33.10;51.90
7232;DHT22;3657;49.630;11.018;2022-08-05T08:25:44;33.20;51.80
7232;DHT22;3657;49.630;11.018;2022-08-05T08:28:12;33.30;51.60
7232;DHT22;3657;49.630;11.018;2022-08-05T08:30:39;33.40;51.60
7232;DHT22;3657;49.630;11.018;2022-08-05T08:33:09;33.50;51.50
7232;DHT22;3657;49.630;11.018;2022-08-05T08:35:36;33.70;51.30
7232;DHT22;3657;49.630;11.018;2022-08-05T08:38:03;33.90;51.20
7232;DHT22;3657;49.630;11.018;2022-08-05T08:40:32;34.10;51.30
7232;DHT22;3657;49.630;11.018;2022-08-05T08:42:59;34.20;50.80
7232;DHT22;3657;49.630;11.018;2022-08-05T08:45:29;34.30;50.50
7232;DHT22;3657;49.630;11.018;2022-08-05T08:47:57;34.40;50.40
7232;DHT22;3657;49.630;11.018;2022-08-05T08:50:28;34.50;50.40
7232;DHT22;3657;49.630;11.018;2022-08-05T08:52:58;34.70;50.80
7232;DHT22;3657;49.630;11.018;2022-08-05T08:55:26;34.60;50.90
7232;DHT22;3657;49.630;11.018;2022-08-05T08:57:53;34.40;51.20
7232;DHT22;3657;49.630;11.018;2022-08-05T09:00:20;34.10;51.30
7232;DHT22;3657;49.630;11.018;2022-08-05T09:02:48;33.90;51.80
7232;DHT22;3657;49.630;11.018;2022-08-05T09:05:15;33.70;52.00
7232;DHT22;3657;49.630;11.018;2022-08-05T09:07:42;33.50;52.10
7232;DHT22;3657;49.630;11.018;2022-08-05T09:10:09;33.50;52.20
7232;DHT22;3657;49.630;11.018;2022-08-05T09:12:37;33.90;52.10
7232;DHT22;3657;49.630;11.018;2022-08-05T09:15:05;34.20;50.90
7232;DHT22;3657;49.630;11.018;2022-08-05T09:17:32;34.50;50.90
7232;DHT22;3657;49.630;11.018;2022-08-05T09:20:01;34.90;50.20
7232;DHT22;3657;49.630;11.018;2022-08-05T09:22:28;35.30;49.40
7232;DHT22;3657;49.630;11.018;2022-08-05T09:25:18;35.60;49.90
7232;DHT22;3657;49.630;11.018;2022-08-05T09:27:45;35.80;48.60
7232;DHT22;3657;49.630;11.018;2022-08-05T09:30:15;36.00;48.70
7232;DHT22;3657;49.630;11.018;2022-08-05T09:32:42;36.20;49.10
7232;DHT22;3657;49.630;11.018;2022-08-05T09:35:11;36.30;48.90
7232;DHT22;3657;49.630;11.018;2022-08-05T09:37:49;36.40;47.70
7232;DHT22;3657;49.630;11.018;2022-08-05T09:40:30;36.50;48.70
7232;DHT22;3657;49.630;11.018;2022-08-05T09:42:57;36.70;48.20
7232;DHT22;3657;49.630;11.018;2022-08-05T09:45:34;36.90;48.40
7232;DHT22;3657;49.630;11.018;2022-08-05T09:48:17;37.10;48.30
7232;DHT22;3657;49.630;11.018;2022-08-05T09:50:49;37.20;47.90
7232;DHT22;3657;49.630;11.018;2022-08-05T09:53:16;37.30;47.60
7232;DHT22;3657;49.630;11.018;2022-08-05T09:55:42;37.50;46.80
7232;DHT22;3657;49.630;11.018;2022-08-05T09:58:10;37.70;47.90
7232;DHT22;3657;49.630;11.018;2022-08-05T10:00:38;37.70;44.00
7232;DHT22;3657;49.630;11.018;2022-08-05T10:03:08;37.50;45.10
7232;DHT22;3657;49.630;11.018;2022-08-05T10:05:35;37.30;46.20
7232;DHT22;3657;49.630;11.018;2022-08-05T10:08:05;37.20;46.40
7232;DHT22;3657;49.630;11.018;2022-08-05T10:10:36;37.30;47.30
7232;DHT22;3657;49.630;11.018;2022-08-05T10:13:03;37.50;46.90
7232;DHT22;3657;49.630;11.018;2022-08-05T10:15:31;37.50;44.80
7232;DHT22;3657;49.630;11.018;2022-08-05T10:18:05;37.60;45.60
7232;DHT22;3657;49.630;11.018;2022-08-05T10:20:34;37.80;45.10
7232;DHT22;3657;49.630;11.018;2022-08-05T10:23:01;37.80;46.30
7232;DHT22;3657;49.630;11.018;2022-08-05T10:25:29;37.90;44.20
7232;DHT22;3657;49.630;11.018;2022-08-05T10:27:57;37.90;46.50
7232;DHT22;3657;49.630;11.018;2022-08-05T10:30:24;38.00;46.20
7232;DHT22;3657;49.630;11.018;2022-08-05T10:32:50;37.90;44.80
7232;DHT22;3657;49.630;11.018;2022-08-05T10:35:17;38.00;44.20
7232;DHT22;3657;49.630;11.018;2022-08-05T10:37:44;38.20;45.40
7232;DHT22;3657;49.630;11.018;2022-08-05T10:40:20;38.20;46.40
7232;DHT22;3657;49.630;11.018;2022-08-05T10:42:51;38.40;45.70
7232;DHT22;3657;49.630;11.018;2022-08-05T10:45:25;38.40;45.90
7232;DHT22;3657;49.630;11.018;2022-08-05T10:47:52;38.60;45.50
7232;DHT22;3657;49.630;11.018;2022-08-05T10:50:19;38.70;45.00
7232;DHT22;3657;49.630;11.018;2022-08-05T10:52:47;38.80;44.40
7232;DHT22;3657;49.630;11.018;2022-08-05T10:55:22;38.70;45.70
7232;DHT22;3657;49.630;11.018;2022-08-05T10:58:05;38.60;45.50
7232;DHT22;3657;49.630;11.018;2022-08-05T11:00:33;38.60;44.30
7232;DHT22;3657;49.630;11.018;2022-08-05T11:03:11;38.80;45.00
7232;DHT22;3657;49.630;11.018;2022-08-05T11:05:39;39.00;45.30
7232;DHT22;3657;49.630;11.018;2022-08-05T11:08:07;39.00;45.40
7232;DHT22;3657;49.630;11.018;2022-08-05T11:10:35;39.20;44.50
7232;DHT22;3657;49.630;11.018;2022-08-05T11:13:04;39.20;45.40
7232;DHT22;3657;49.630;11.018;2022-08-05T11:15:33;39.20;43.80
7232;DHT22;3657;49.630;11.018;2022-08-05T11:18:08;39.30;45.40
7232;DHT22;3657;49.630;11.018;2022-08-05T11:20:40;39.20;43.80
7232;DHT22;3657;49.630;11.018;2022-08-05T11:23:36;39.20;44.90
7232;DHT22;3657;49.630;11.018;2022-08-05T11:26:07;39.30;45.20
7232;DHT22;3657;49.630;11.018;2022-08-05T11:28:41;39.50;44.90
7232;DHT22;3657;49.630;11.018;2022-08-05T11:31:25;39.50;44.80
7232;DHT22;3657;49.630;11.018;2022-08-05T11:34:05;39.50;44.30
7232;DHT22;3657;49.630;11.018;2022-08-05T11:36:41;39.60;45.10
7232;DHT22;3657;49.630;11.018;2022-08-05T11:39:09;39.60;45.20
7232;DHT22;3657;49.630;11.018;2022-08-05T11:41:36;39.70;44.80
7232;DHT22;3657;49.630;11.018;2022-08-05T11:44:06;39.80;44.60
7232;DHT22;3657;49.630;11.018;2022-08-05T11:46:36;40.00;44.60
7232;DHT22;3657;49.630;11.018;2022-08-05T11:49:05;40.10;44.60
7232;DHT22;3657;49.630;11.018;2022-08-05T11:51:32;40.10;44.60
7232;DHT22;3657;49.630;11.018;2022-08-05T11:53:59;40.00;44.70
7232;DHT22;3657;49.630;11.018;2022-08-05T11:56:42;40.00;45.00
7232;DHT22;3657;49.630;11.018;2022-08-05T11:59:14;39.90;44.10
7232;DHT22;3657;49.630;11.018;2022-08-05T12:01:52;39.80;45.00
7232;DHT22;3657;49.630;11.018;2022-08-05T12:04:19;39.70;43.50
7232;DHT22;3657;49.630;11.018;2022-08-05T12:06:46;39.70;44.80
7232;DHT22;3657;49.630;11.018;2022-08-05T12:09:16;39.70;44.20
7232;DHT22;3657;49.630;11.018;2022-08-05T12:11:44;39.50;44.40
7232;DHT22;3657;49.630;11.018;2022-08-05T12:14:13;39.50;45.00
7232;DHT22;3657;49.630;11.018;2022-08-05T12:16:42;39.60;44.90
7232;DHT22;3657;49.630;11.018;2022-08-05T12:19:10;39.80;45.00
7232;DHT22;3657;49.630;11.018;2022-08-05T12:21:42;39.80;44.40
7232;DHT22;3657;49.630;11.018;2022-08-05T12:24:11;39.80;44.70
7232;DHT22;3657;49.630;11.018;2022-08-05T12:26:40;39.80;45.00
7232;DHT22;3657;49.630;11.018;2022-08-05T12:29:10;39.70;43.80
7232;DHT22;3657;49.630;11.018;2022-08-05T12:31:39;39.60;44.60
7232;DHT22;3657;49.630;11.018;2022-08-05T12:34:07;39.60;44.90
7232;DHT22;3657;49.630;11.018;2022-08-05T12:36:35;39.60;43.70
7232;DHT22;3657;49.630;11.018;2022-08-05T12:39:03;39.80;45.10
7232;DHT22;3657;49.630;11.018;2022-08-05T12:41:32;39.90;45.10
7232;DHT22;3657;49.630;11.018;2022-08-05T12:44:01;40.00;43.50
7232;DHT22;3657;49.630;11.018;2022-08-05T12:46:29;40.00;44.20
7232;DHT22;3657;49.630;11.018;2022-08-05T12:48:59;39.70;43.60
7232;DHT22;3657;49.630;11.018;2022-08-05T12:51:27;39.80;44.30
7232;DHT22;3657;49.630;11.018;2022-08-05T12:53:59;39.80;42.60
7232;DHT22;3657;49.630;11.018;2022-08-05T12:56:26;39.80;43.50
7232;DHT22;3657;49.630;11.018;2022-08-05T12:59:13;39.90;43.90
7232;DHT22;3657;49.630;11.018;2022-08-05T13:01:43;40.00;43.00
7232;DHT22;3657;49.630;11.018;2022-08-05T13:04:11;40.20;44.30
7232;DHT22;3657;49.630;11.018;2022-08-05T13:06:41;40.30;44.10
7232;DHT22;3657;49.630;11.018;2022-08-05T13:09:10;40.40;43.60
7232;DHT22;3657;49.630;11.018;2022-08-05T13:11:39;40.40;43.50
7232;DHT22;3657;49.630;11.018;2022-08-05T13:14:19;40.30;43.80
7232;DHT22;3657;49.630;11.018;2022-08-05T13:16:47;40.20;43.80
7232;DHT22;3657;49.630;11.018;2022-08-05T13:19:15;40.40;43.90
7232;DHT22;3657;49.630;11.018;2022-08-05T13:21:45;40.50;43.40
7232;DHT22;3657;49.630;11.018;2022-08-05T13:24:11;40.50;43.60
7232;DHT22;3657;49.630;11.018;2022-08-05T13:26:38;40.50;43.50
7232;DHT22;3657;49.630;11.018;2022-08-05T13:29:05;40.70;43.60
7232;DHT22;3657;49.630;11.018;2022-08-05T13:31:31;40.80;43.10
7232;DHT22;3657;49.630;11.018;2022-08-05T13:33:58;40.80;43.10
7232;DHT22;3657;49.630;11.018;2022-08-05T13:36:26;41.00;43.20
7232;DHT22;3657;49.630;11.018;2022-08-05T13:38:53;41.00;43.30
7232;DHT22;3657;49.630;11.018;2022-08-05T13:41:20;41.00;43.00
7232;DHT22;3657;49.630;11.018;2022-08-05T13:43:46;41.00;43.00
7232;DHT22;3657;49.630;11.018;2022-08-05T13:46:13;40.90;42.70
7232;DHT22;3657;49.630;11.018;2022-08-05T13:48:40;40.80;42.70
7232;DHT22;3657;49.630;11.018;2022-08-05T13:51:08;40.90;42.90
7232;DHT22;3657;49.630;11.018;2022-08-05T13:53:36;40.90;42.80
7232;DHT22;3657;49.630;11.018;2022-08-05T13:56:04;40.80;42.70
7232;DHT22;3657;49.630;11.018;2022-08-05T13:58:31;40.80;43.00
7232;DHT22;3657;49.630;11.018;2022-08-05T14:00:57;40.70;42.90
7232;DHT22;3657;49.630;11.018;2022-08-05T14:03:24;40.70;42.70
7232;DHT22;3657;49.630;11.018;2022-08-05T14:05:52;40.60;43.00
7232;DHT22;3657;49.630;11.018;2022-08-05T14:08:18;40.40;42.40
7232;DHT22;3657;49.630;11.018;2022-08-05T14:10:46;40.50;42.10
7232;DHT22;3657;49.630;11.018;2022-08-05T14:13:13;40.50;42.60
7232;DHT22;3657;49.630;11.018;2022-08-05T14:15:39;40.40;42.20
7232;DHT22;3657;49.630;11.018;2022-08-05T14:18:06;40.40;42.30
7232;DHT22;3657;49.630;11.018;2022-08-05T14:20:33;40.30;42.20
7232;DHT22;3657;49.630;11.018;2022-08-05T14:23:00;40.20;42.20
7232;DHT22;3657;49.630;11.018;2022-08-05T14:25:27;40.00;41.80
7232;DHT22;3657;49.630;11.018;2022-08-05T14:27:55;40.00;42.50
7232;DHT22;3657;49.630;11.018;2022-08-05T14:30:21;40.00;42.30
7232;DHT22;3657;49.630;11.018;2022-08-05T14:32:49;40.00;41.90
7232;DHT22;3657;49.630;11.018;2022-08-05T14:35:16;39.90;41.80
7232;DHT22;3657;49.630;11.018;2022-08-05T14:37:43;39.90;42.40
7232;DHT22;3657;49.630;11.018;2022-08-05T14:40:10;39.90;41.90
7232;DHT22;3657;49.630;11.018;2022-08-05T14:42:37;39.70;41.20
7232;DHT22;3657;49.630;11.018;2022-08-05T14:45:07;39.60;41.10
7232;DHT22;3657;49.630;11.018;2022-08-05T14:47:35;39.30;41.60
7232;DHT22;3657;49.630;11.018;2022-08-05T14:50:02;39.30;42.80
7232;DHT22;3657;49.630;11.018;2022-08-05T14:52:28;39.30;42.00
7232;DHT22;3657;49.630;11.018;2022-08-05T14:54:55;39.20;42.30
7232;DHT22;3657;49.630;11.018;2022-08-05T14:57:22;39.20;42.40
7232;DHT22;3657;49.630;11.018;2022-08-05T14:59:48;39.00;42.40
7232;DHT22;3657;49.630;11.018;2022-08-05T15:02:16;38.80;42.60
7232;DHT22;3657;49.630;11.018;2022-08-05T15:04:43;38.70;43.20
7232;DHT22;3657;49.630;11.018;2022-08-05T15:07:10;38.70;42.80
7232;DHT22;3657;49.630;11.018;2022-08-05T15:09:36;38.40;42.70
7232;DHT22;3657;49.630;11.018;2022-08-05T15:12:04;38.20;42.60
7232;DHT22;3657;49.630;11.018;2022-08-05T15:14:31;38.20;42.50
7232;DHT22;3657;49.630;11.018;2022-08-05T15:17:00;38.00;41.70
7232;DHT22;3657;49.630;11.018;2022-08-05T15:19:28;37.90;42.70
7232;DHT22;3657;49.630;11.018;2022-08-05T15:21:54;38.00;42.50
7232;DHT22;3657;49.630;11.018;2022-08-05T15:24:21;38.00;42.90
7232;DHT22;3657;49.630;11.018;2022-08-05T15:26:48;38.00;42.90
7232;DHT22;3657;49.630;11.018;2022-08-05T15:29:15;38.20;42.40
7232;DHT22;3657;49.630;11.018;2022-08-05T15:31:41;38.10;41.50
7232;DHT22;3657;49.630;11.018;2022-08-05T15:34:08;37.90;42.70
7232;DHT22;3657;49.630;11.018;2022-08-05T15:36:36;37.80;42.50
7232;DHT22;3657;49.630;11.018;2022-08-05T15:39:03;37.60;42.30
7232;DHT22;3657;49.630;11.018;2022-08-05T15:41:29;37.50;42.70
7232;DHT22;3657;49.630;11.018;2022-08-05T15:43:56;37.30;42.90
7232;DHT22;3657;49.630;11.018;2022-08-05T15:46:23;37.30;43.20
7232;DHT22;3657;49.630;11.018;2022-08-05T15:48:50;37.30;43.00
7232;DHT22;3657;49.630;11.018;2022-08-05T15:51:16;37.20;42.80
7232;DHT22;3657;49.630;11.018;2022-08-05T15:53:48;37.10;43.30